NGS3101 KPHX-KABQ
Flight info
| Callsign | NGS3101 |
|---|---|
| Flight time | 0h 42m |
| Altitude | 37000 |
| Route | FORPE1 SJN TMALE BRRTO1 |
| Aircraft | A319/M-SDE3FGHIRWY/LB1 |
Departure
| Time | 2026-05-03 20:42 |
|---|---|
| Airport | Phoenix Sky Harbor International Airport (KPHX) |
Arrival
| Time | 2026-05-03 21:24 |
|---|---|
| Airport | Albuquerque International Sunport (KABQ) |
| Time | Latitude | Longitude | Altitude | Speed | Heading |
|---|---|---|---|---|---|
| 2026-05-03 20:15 | 33.43722 | -111.99877 | 1125 ft | 0 kts | 270° |
| 2026-05-03 20:27 | 33.43722 | -111.99870 | 1115 ft | 4 kts | 272° |
| 2026-05-03 20:28 | 33.43717 | -111.99841 | 1116 ft | 4 kts | 308° |
| 2026-05-03 20:28 | 33.43697 | -111.99826 | 1114 ft | 2 kts | 359° |
| 2026-05-03 20:28 | 33.43691 | -111.99826 | 1115 ft | 0 kts | 0° |
| 2026-05-03 20:32 | 33.43700 | -111.99826 | 1118 ft | 3 kts | 0° |
| 2026-05-03 20:32 | 33.43726 | -111.99826 | 1118 ft | 5 kts | 0° |
| 2026-05-03 20:32 | 33.43768 | -111.99826 | 1122 ft | 7 kts | 1° |
| 2026-05-03 20:32 | 33.43822 | -111.99825 | 1121 ft | 8 kts | 360° |
| 2026-05-03 20:33 | 33.43880 | -111.99830 | 1122 ft | 9 kts | 342° |
| 2026-05-03 20:33 | 33.43905 | -111.99890 | 1123 ft | 9 kts | 268° |
| 2026-05-03 20:33 | 33.43905 | -111.99972 | 1125 ft | 11 kts | 270° |
| 2026-05-03 20:33 | 33.43905 | -112.00075 | 1125 ft | 14 kts | 270° |
| 2026-05-03 20:34 | 33.43906 | -112.00201 | 1125 ft | 17 kts | 270° |
| 2026-05-03 20:34 | 33.43905 | -112.00352 | 1125 ft | 20 kts | 268° |
| 2026-05-03 20:34 | 33.43829 | -112.00470 | 1125 ft | 21 kts | 181° |
| 2026-05-03 20:34 | 33.43672 | -112.00467 | 1122 ft | 24 kts | 180° |
| 2026-05-03 20:35 | 33.43499 | -112.00468 | 1122 ft | 26 kts | 180° |
| 2026-05-03 20:35 | 33.43308 | -112.00468 | 1123 ft | 28 kts | 180° |
| 2026-05-03 20:35 | 33.43210 | -112.00587 | 1128 ft | 26 kts | 273° |
| 2026-05-03 20:35 | 33.43215 | -112.00811 | 1123 ft | 28 kts | 270° |
| 2026-05-03 20:36 | 33.43214 | -112.01051 | 1123 ft | 29 kts | 270° |
| 2026-05-03 20:36 | 33.43215 | -112.01302 | 1118 ft | 31 kts | 270° |
| 2026-05-03 20:36 | 33.43215 | -112.01475 | 1118 ft | 32 kts | 270° |
| 2026-05-03 20:36 | 33.43215 | -112.01744 | 1122 ft | 33 kts | 270° |
| 2026-05-03 20:37 | 33.43215 | -112.02022 | 1123 ft | 34 kts | 270° |
| 2026-05-03 20:37 | 33.43215 | -112.02309 | 1125 ft | 35 kts | 270° |
| 2026-05-03 20:37 | 33.43215 | -112.02595 | 1125 ft | 23 kts | 270° |
| 2026-05-03 20:37 | 33.43201 | -112.02686 | 1121 ft | 0 kts | 232° |
| 2026-05-03 20:39 | 33.43201 | -112.02687 | 1125 ft | 0 kts | 232° |
| 2026-05-03 20:40 | 33.43197 | -112.02691 | 1125 ft | 2 kts | 221° |
| 2026-05-03 20:40 | 33.43178 | -112.02701 | 1124 ft | 5 kts | 197° |
| 2026-05-03 20:40 | 33.43141 | -112.02700 | 1122 ft | 6 kts | 172° |
| 2026-05-03 20:40 | 33.43109 | -112.02661 | 1122 ft | 8 kts | 100° |
| 2026-05-03 20:41 | 33.43107 | -112.02555 | 1126 ft | 29 kts | 90° |
| 2026-05-03 20:41 | 33.43106 | -112.02086 | 1127 ft | 84 kts | 90° |
| 2026-05-03 20:41 | 33.43104 | -112.01167 | 1129 ft | 136 kts | 90° |
| 2026-05-03 20:41 | 33.43105 | -111.99891 | 1372 ft | 160 kts | 91° |
| 2026-05-03 20:42 | 33.43149 | -111.98571 | 1979 ft | 161 kts | 91° |
| 2026-05-03 20:42 | 33.43222 | -111.97204 | 2518 ft | 165 kts | 92° |
| 2026-05-03 20:42 | 33.43299 | -111.95859 | 3047 ft | 167 kts | 91° |
| 2026-05-03 20:42 | 33.43361 | -111.94357 | 3257 ft | 190 kts | 92° |
| 2026-05-03 20:43 | 33.43418 | -111.92649 | 3484 ft | 218 kts | 92° |
| 2026-05-03 20:43 | 33.43494 | -111.90748 | 4001 ft | 237 kts | 91° |
| 2026-05-03 20:43 | 33.43588 | -111.88690 | 4504 ft | 260 kts | 89° |
| 2026-05-03 20:43 | 33.44012 | -111.86508 | 5221 ft | 279 kts | 71° |
| 2026-05-03 20:44 | 33.44863 | -111.84385 | 6100 ft | 287 kts | 64° |
| 2026-05-03 20:44 | 33.45845 | -111.82275 | 7016 ft | 292 kts | 63° |
| 2026-05-03 20:44 | 33.46852 | -111.80146 | 7914 ft | 296 kts | 63° |
| 2026-05-03 20:44 | 33.47849 | -111.77969 | 8822 ft | 300 kts | 65° |
| 2026-05-03 20:45 | 33.48814 | -111.75767 | 9719 ft | 304 kts | 67° |
| 2026-05-03 20:45 | 33.49779 | -111.73478 | 10402 ft | 316 kts | 66° |
| 2026-05-03 20:45 | 33.50787 | -111.71029 | 10715 ft | 340 kts | 67° |
| 2026-05-03 20:45 | 33.51841 | -111.68439 | 11336 ft | 349 kts | 67° |
| 2026-05-03 20:46 | 33.52915 | -111.65809 | 12081 ft | 355 kts | 66° |
| 2026-05-03 20:46 | 33.54007 | -111.63135 | 12854 ft | 359 kts | 67° |
| 2026-05-03 20:46 | 33.55108 | -111.60438 | 13604 ft | 363 kts | 67° |
| 2026-05-03 20:46 | 33.56230 | -111.57694 | 14258 ft | 369 kts | 66° |
| 2026-05-03 20:47 | 33.57370 | -111.54903 | 14801 ft | 376 kts | 66° |
| 2026-05-03 20:47 | 33.58526 | -111.52058 | 15450 ft | 382 kts | 66° |
| 2026-05-03 20:47 | 33.59698 | -111.49163 | 16080 ft | 388 kts | 65° |
| 2026-05-03 20:47 | 33.60881 | -111.46239 | 16721 ft | 393 kts | 65° |
| 2026-05-03 20:48 | 33.62085 | -111.43259 | 17342 ft | 399 kts | 65° |
| 2026-05-03 20:48 | 33.63304 | -111.40249 | 17982 ft | 404 kts | 64° |
| 2026-05-03 20:48 | 33.64546 | -111.37193 | 18535 ft | 410 kts | 64° |
| 2026-05-03 20:48 | 33.65806 | -111.34088 | 19086 ft | 416 kts | 64° |
| 2026-05-03 20:49 | 33.67073 | -111.30953 | 19641 ft | 420 kts | 64° |
| 2026-05-03 20:49 | 33.68351 | -111.27777 | 20175 ft | 425 kts | 65° |
| 2026-05-03 20:49 | 33.69618 | -111.24540 | 20687 ft | 431 kts | 65° |
| 2026-05-03 20:49 | 33.70834 | -111.21237 | 21210 ft | 436 kts | 67° |
| 2026-05-03 20:50 | 33.72026 | -111.17865 | 21755 ft | 440 kts | 67° |
| 2026-05-03 20:50 | 33.73209 | -111.14459 | 22269 ft | 445 kts | 67° |
| 2026-05-03 20:50 | 33.74406 | -111.11015 | 22781 ft | 450 kts | 67° |
| 2026-05-03 20:50 | 33.75634 | -111.07514 | 23291 ft | 456 kts | 66° |
| 2026-05-03 20:51 | 33.76879 | -111.03993 | 23736 ft | 460 kts | 66° |
| 2026-05-03 20:51 | 33.78146 | -111.00437 | 24161 ft | 465 kts | 66° |
| 2026-05-03 20:51 | 33.79426 | -110.96856 | 24567 ft | 469 kts | 66° |
| 2026-05-03 20:51 | 33.80720 | -110.93229 | 24981 ft | 473 kts | 66° |
| 2026-05-03 20:52 | 33.82013 | -110.89585 | 25389 ft | 477 kts | 66° |
| 2026-05-03 20:52 | 33.83321 | -110.85898 | 25737 ft | 479 kts | 65° |
| 2026-05-03 20:52 | 33.84631 | -110.82198 | 26069 ft | 483 kts | 65° |
| 2026-05-03 20:52 | 33.85952 | -110.78460 | 26457 ft | 488 kts | 65° |
| 2026-05-03 20:53 | 33.87282 | -110.74690 | 26851 ft | 492 kts | 65° |
| 2026-05-03 20:53 | 33.88626 | -110.70875 | 27237 ft | 496 kts | 65° |
| 2026-05-03 20:53 | 33.89978 | -110.67036 | 27627 ft | 500 kts | 65° |
| 2026-05-03 20:53 | 33.91338 | -110.63167 | 28052 ft | 504 kts | 64° |
| 2026-05-03 20:54 | 33.92708 | -110.59270 | 28444 ft | 507 kts | 64° |
| 2026-05-03 20:54 | 33.95471 | -110.51379 | 29207 ft | 515 kts | 64° |
| 2026-05-03 20:54 | 33.96866 | -110.47386 | 29555 ft | 519 kts | 64° |
| 2026-05-03 20:55 | 33.98268 | -110.43370 | 29927 ft | 522 kts | 64° |
| 2026-05-03 20:55 | 33.99682 | -110.39324 | 30249 ft | 525 kts | 64° |
| 2026-05-03 20:55 | 34.01103 | -110.35259 | 30567 ft | 528 kts | 64° |
| 2026-05-03 20:55 | 34.02510 | -110.31223 | 30866 ft | 530 kts | 64° |
| 2026-05-03 20:56 | 34.03938 | -110.27110 | 31226 ft | 533 kts | 64° |
| 2026-05-03 20:56 | 34.05386 | -110.22924 | 31569 ft | 535 kts | 64° |
| 2026-05-03 20:56 | 34.06802 | -110.18826 | 31889 ft | 537 kts | 64° |
| 2026-05-03 20:56 | 34.08238 | -110.14668 | 32269 ft | 538 kts | 64° |
| 2026-05-03 20:57 | 34.09675 | -110.10505 | 32739 ft | 537 kts | 64° |
| 2026-05-03 20:57 | 34.11109 | -110.06349 | 33223 ft | 536 kts | 64° |
| 2026-05-03 20:57 | 34.12540 | -110.02200 | 33690 ft | 535 kts | 64° |
| 2026-05-03 20:57 | 34.13966 | -109.98061 | 34145 ft | 534 kts | 64° |
| 2026-05-03 20:58 | 34.15392 | -109.93919 | 34543 ft | 533 kts | 64° |
| 2026-05-03 20:58 | 34.16812 | -109.89790 | 34903 ft | 533 kts | 64° |
| 2026-05-03 20:58 | 34.18236 | -109.85647 | 35243 ft | 533 kts | 64° |
| 2026-05-03 20:58 | 34.19655 | -109.81510 | 35579 ft | 533 kts | 63° |
| 2026-05-03 20:59 | 34.21072 | -109.77372 | 35896 ft | 534 kts | 63° |
| 2026-05-03 20:59 | 34.22491 | -109.73221 | 36182 ft | 534 kts | 63° |
| 2026-05-03 20:59 | 34.23910 | -109.69072 | 36473 ft | 535 kts | 63° |
| 2026-05-03 20:59 | 34.25328 | -109.64916 | 36760 ft | 535 kts | 63° |
| 2026-05-03 21:00 | 34.26745 | -109.60755 | 36986 ft | 535 kts | 63° |
| 2026-05-03 21:00 | 34.27206 | -109.59401 | 37011 ft | 534 kts | 63° |
| 2026-05-03 21:00 | 34.30961 | -109.48326 | 37064 ft | 532 kts | 63° |
| 2026-05-03 21:01 | 34.33755 | -109.40035 | 37076 ft | 531 kts | 63° |
| 2026-05-03 21:01 | 34.36554 | -109.31759 | 37060 ft | 531 kts | 63° |
| 2026-05-03 21:02 | 34.39346 | -109.23473 | 37026 ft | 531 kts | 63° |
| 2026-05-03 21:02 | 34.41713 | -109.14974 | 36977 ft | 537 kts | 77° |
| 2026-05-03 21:03 | 34.42294 | -109.06028 | 36937 ft | 538 kts | 91° |
| 2026-05-03 21:03 | 34.42164 | -108.96969 | 36934 ft | 538 kts | 91° |
| 2026-05-03 21:04 | 34.42042 | -108.87920 | 36932 ft | 538 kts | 91° |
| 2026-05-03 21:04 | 34.41920 | -108.78849 | 36925 ft | 538 kts | 91° |
| 2026-05-03 21:05 | 34.41778 | -108.69738 | 36389 ft | 549 kts | 91° |
| 2026-05-03 21:05 | 34.41894 | -108.65060 | 35320 ft | 558 kts | 82° |
| 2026-05-03 21:05 | 34.42503 | -108.60482 | 34669 ft | 546 kts | 74° |
| 2026-05-03 21:06 | 34.43501 | -108.56079 | 33851 ft | 539 kts | 70° |
| 2026-05-03 21:06 | 34.44577 | -108.51767 | 33233 ft | 531 kts | 70° |
| 2026-05-03 21:06 | 34.45646 | -108.47505 | 32632 ft | 527 kts | 70° |
| 2026-05-03 21:06 | 34.46713 | -108.43273 | 32012 ft | 526 kts | 70° |
| 2026-05-03 21:07 | 34.47782 | -108.39044 | 31401 ft | 524 kts | 70° |
| 2026-05-03 21:07 | 34.48846 | -108.34826 | 30795 ft | 522 kts | 70° |
| 2026-05-03 21:07 | 34.49902 | -108.30619 | 30177 ft | 521 kts | 70° |
| 2026-05-03 21:07 | 34.50950 | -108.26427 | 29520 ft | 518 kts | 71° |
| 2026-05-03 21:08 | 34.51986 | -108.22264 | 28936 ft | 512 kts | 71° |
| 2026-05-03 21:08 | 34.53007 | -108.18150 | 28341 ft | 508 kts | 71° |
| 2026-05-03 21:08 | 34.54021 | -108.14067 | 27754 ft | 503 kts | 71° |
| 2026-05-03 21:08 | 34.55025 | -108.10029 | 27173 ft | 498 kts | 71° |
| 2026-05-03 21:09 | 34.56015 | -108.06029 | 26649 ft | 492 kts | 71° |
| 2026-05-03 21:09 | 34.56984 | -108.02099 | 26153 ft | 485 kts | 72° |
| 2026-05-03 21:09 | 34.57944 | -107.98195 | 25575 ft | 481 kts | 72° |
| 2026-05-03 21:09 | 34.58896 | -107.94325 | 25091 ft | 475 kts | 72° |
| 2026-05-03 21:10 | 34.59835 | -107.90509 | 24606 ft | 469 kts | 72° |
| 2026-05-03 21:10 | 34.60761 | -107.86741 | 24112 ft | 464 kts | 72° |
| 2026-05-03 21:10 | 34.61676 | -107.83012 | 23642 ft | 458 kts | 72° |
| 2026-05-03 21:10 | 34.62783 | -107.79446 | 22943 ft | 446 kts | 61° |
| 2026-05-03 21:11 | 34.64212 | -107.76190 | 22486 ft | 429 kts | 59° |
| 2026-05-03 21:11 | 34.65131 | -107.74095 | 22070 ft | 421 kts | 59° |
| 2026-05-03 21:11 | 34.66482 | -107.70972 | 21364 ft | 413 kts | 60° |
| 2026-05-03 21:11 | 34.67794 | -107.67906 | 20667 ft | 406 kts | 60° |
| 2026-05-03 21:12 | 34.69081 | -107.64889 | 20273 ft | 398 kts | 60° |
| 2026-05-03 21:12 | 34.70352 | -107.61912 | 19998 ft | 398 kts | 60° |
| 2026-05-03 21:12 | 34.71622 | -107.58943 | 19541 ft | 392 kts | 60° |
| 2026-05-03 21:12 | 34.72875 | -107.56020 | 19069 ft | 388 kts | 60° |
| 2026-05-03 21:13 | 34.74115 | -107.53130 | 18494 ft | 383 kts | 60° |
| 2026-05-03 21:13 | 34.75340 | -107.50276 | 18016 ft | 377 kts | 60° |
| 2026-05-03 21:13 | 34.76548 | -107.47469 | 17584 ft | 373 kts | 60° |
| 2026-05-03 21:13 | 34.77745 | -107.44687 | 17163 ft | 370 kts | 61° |
| 2026-05-03 21:14 | 34.78931 | -107.41926 | 16736 ft | 367 kts | 61° |
| 2026-05-03 21:14 | 34.80104 | -107.39183 | 16325 ft | 364 kts | 60° |
| 2026-05-03 21:14 | 34.81276 | -107.36442 | 15891 ft | 367 kts | 60° |
| 2026-05-03 21:14 | 34.82450 | -107.33686 | 15460 ft | 365 kts | 60° |
| 2026-05-03 21:15 | 34.83611 | -107.30954 | 15051 ft | 363 kts | 60° |
| 2026-05-03 21:15 | 34.84754 | -107.28267 | 14757 ft | 360 kts | 60° |
| 2026-05-03 21:15 | 34.85908 | -107.25521 | 14515 ft | 359 kts | 61° |
| 2026-05-03 21:15 | 34.87014 | -107.22847 | 14285 ft | 358 kts | 62° |
| 2026-05-03 21:16 | 34.88121 | -107.20150 | 14051 ft | 354 kts | 62° |
| 2026-05-03 21:16 | 34.89206 | -107.17504 | 13824 ft | 345 kts | 62° |
| 2026-05-03 21:16 | 34.90270 | -107.14923 | 13573 ft | 337 kts | 62° |
| 2026-05-03 21:16 | 34.91329 | -107.12406 | 13312 ft | 331 kts | 61° |
| 2026-05-03 21:17 | 34.92381 | -107.09942 | 13061 ft | 327 kts | 61° |
| 2026-05-03 21:17 | 34.93429 | -107.07495 | 12705 ft | 326 kts | 60° |
| 2026-05-03 21:17 | 34.94479 | -107.05044 | 12298 ft | 325 kts | 61° |
| 2026-05-03 21:17 | 34.95514 | -107.02620 | 11971 ft | 321 kts | 60° |
| 2026-05-03 21:18 | 34.96530 | -107.00207 | 11472 ft | 319 kts | 62° |
| 2026-05-03 21:18 | 34.97508 | -106.97794 | 10991 ft | 316 kts | 62° |
| 2026-05-03 21:18 | 34.98458 | -106.95399 | 10526 ft | 312 kts | 63° |
| 2026-05-03 21:18 | 34.99390 | -106.93034 | 9982 ft | 308 kts | 63° |
| 2026-05-03 21:19 | 35.00313 | -106.90693 | 9415 ft | 304 kts | 63° |
| 2026-05-03 21:19 | 35.01231 | -106.88378 | 8806 ft | 302 kts | 63° |
| 2026-05-03 21:19 | 35.02129 | -106.86119 | 8681 ft | 288 kts | 63° |
| 2026-05-03 21:19 | 35.02989 | -106.83958 | 8548 ft | 270 kts | 63° |
| 2026-05-03 21:20 | 35.03770 | -106.82000 | 8444 ft | 251 kts | 63° |
| 2026-05-03 21:20 | 35.04372 | -106.80064 | 8321 ft | 239 kts | 78° |
| 2026-05-03 21:20 | 35.04531 | -106.78052 | 7971 ft | 238 kts | 90° |
| 2026-05-03 21:20 | 35.04518 | -106.76048 | 7657 ft | 233 kts | 91° |
| 2026-05-03 21:21 | 35.04499 | -106.74145 | 7351 ft | 218 kts | 92° |
| 2026-05-03 21:21 | 35.04489 | -106.72366 | 7087 ft | 201 kts | 92° |
| 2026-05-03 21:21 | 35.04487 | -106.70728 | 6820 ft | 187 kts | 92° |
| 2026-05-03 21:21 | 35.04481 | -106.69201 | 6567 ft | 174 kts | 92° |
| 2026-05-03 21:22 | 35.04475 | -106.67770 | 6355 ft | 164 kts | 91° |
| 2026-05-03 21:22 | 35.04460 | -106.66414 | 6140 ft | 158 kts | 91° |
| 2026-05-03 21:22 | 35.04453 | -106.65094 | 5917 ft | 154 kts | 91° |
| 2026-05-03 21:22 | 35.04445 | -106.63806 | 5666 ft | 150 kts | 91° |
| 2026-05-03 21:23 | 35.04441 | -106.62534 | 5449 ft | 151 kts | 91° |
| 2026-05-03 21:23 | 35.04429 | -106.61277 | 5321 ft | 138 kts | 91° |
| 2026-05-03 21:23 | 35.04420 | -106.60296 | 5323 ft | 91 kts | 90° |
| 2026-05-03 21:23 | 35.04422 | -106.59700 | 5320 ft | 60 kts | 89° |
| 2026-05-03 21:24 | 35.04451 | -106.59247 | 5321 ft | 44 kts | 69° |
| 2026-05-03 21:24 | 35.04527 | -106.59095 | 5317 ft | 0 kts | 60° |
| 2026-05-03 21:24 | 35.04527 | -106.59094 | 5317 ft | 1 kts | 60° |
| 2026-05-03 21:25 | 35.04538 | -106.59082 | 5318 ft | 4 kts | 36° |
| 2026-05-03 21:25 | 35.04575 | -106.59091 | 5319 ft | 9 kts | 305° |
| 2026-05-03 21:25 | 35.04579 | -106.59194 | 5321 ft | 15 kts | 271° |
| 2026-05-03 21:25 | 35.04579 | -106.59337 | 5321 ft | 18 kts | 270° |
| 2026-05-03 21:26 | 35.04581 | -106.59508 | 5321 ft | 22 kts | 271° |
| 2026-05-03 21:26 | 35.04582 | -106.59722 | 5322 ft | 29 kts | 270° |
| 2026-05-03 21:26 | 35.04570 | -106.60002 | 5321 ft | 38 kts | 266° |
| 2026-05-03 21:26 | 35.04572 | -106.60359 | 5322 ft | 42 kts | 270° |
| 2026-05-03 21:27 | 35.04574 | -106.60626 | 5321 ft | 23 kts | 270° |
| 2026-05-03 21:27 | 35.04575 | -106.60822 | 5322 ft | 24 kts | 270° |
| 2026-05-03 21:27 | 35.04577 | -106.61025 | 5321 ft | 23 kts | 270° |
| 2026-05-03 21:27 | 35.04577 | -106.61227 | 5322 ft | 25 kts | 271° |
| 2026-05-03 21:28 | 35.04553 | -106.61403 | 5315 ft | 22 kts | 259° |
| 2026-05-03 21:28 | 35.04559 | -106.61568 | 5317 ft | 14 kts | 294° |
| 2026-05-03 21:28 | 35.04627 | -106.61612 | 5320 ft | 13 kts | 30° |
| 2026-05-03 21:28 | 35.04680 | -106.61591 | 5319 ft | 6 kts | 11° |
| 2026-05-03 21:29 | 35.04692 | -106.61589 | 5317 ft | 0 kts | 11° |
| 2026-05-03 21:29 | 35.04693 | -106.61588 | 5317 ft | 0 kts | 11° |